createdAt,value
2018-09-17T00:01:35.946Z,10.60
2018-09-17T00:04:03.476Z,10.30
2018-09-17T00:06:31.039Z,9.67
2018-09-17T00:08:58.560Z,10.23
2018-09-17T00:11:26.094Z,10.63
2018-09-17T00:13:53.692Z,10.17
2018-09-17T00:16:21.200Z,9.97
2018-09-17T00:18:48.729Z,9.97
2018-09-17T00:21:16.272Z,10.53
2018-09-17T00:23:43.840Z,10.00
2018-09-17T00:26:11.447Z,10.57
2018-09-17T00:28:38.989Z,10.57
2018-09-17T00:31:06.548Z,9.83
2018-09-17T00:33:34.105Z,9.70
2018-09-17T00:36:02.403Z,10.63
2018-09-17T00:38:29.932Z,10.27
2018-09-17T00:40:57.503Z,11.00
2018-09-17T00:43:25.033Z,10.33
2018-09-17T00:45:52.569Z,11.17
2018-09-17T00:48:20.103Z,11.37
2018-09-17T00:50:47.643Z,10.83
2018-09-17T00:53:15.177Z,10.37
2018-09-17T00:55:42.783Z,10.80
2018-09-17T00:58:10.314Z,11.10
2018-09-17T01:00:37.841Z,10.17
2018-09-17T01:03:05.592Z,10.13
2018-09-17T01:05:33.192Z,11.80
2018-09-17T01:08:00.740Z,10.00
2018-09-17T01:10:28.272Z,10.80
2018-09-17T01:12:55.813Z,9.77
2018-09-17T01:15:23.354Z,8.93
2018-09-17T01:17:50.904Z,9.53
2018-09-17T01:20:18.476Z,9.00
2018-09-17T01:22:46.052Z,8.23
2018-09-17T01:25:13.639Z,8.30
2018-09-17T01:27:41.248Z,8.63
2018-09-17T01:30:08.796Z,8.57
2018-09-17T01:32:36.344Z,9.80
2018-09-17T01:35:03.930Z,12.00
2018-09-17T01:37:31.479Z,13.83
2018-09-17T01:39:59.082Z,12.40
2018-09-17T01:42:26.653Z,13.87
2018-09-17T01:44:54.187Z,14.47
2018-09-17T01:47:21.806Z,13.60
2018-09-17T01:49:49.388Z,13.60
2018-09-17T01:52:16.960Z,13.30
2018-09-17T01:54:44.640Z,12.83
2018-09-17T01:57:12.170Z,13.07
2018-09-17T01:59:39.724Z,12.87
2018-09-17T02:02:08.111Z,13.07
2018-09-17T02:04:35.802Z,14.10
2018-09-17T02:07:03.409Z,14.60
2018-09-17T02:09:31.006Z,13.73
2018-09-17T02:11:58.576Z,13.50
2018-09-17T02:14:26.111Z,14.50
2018-09-17T02:16:53.624Z,14.20
2018-09-17T02:19:21.174Z,14.60
2018-09-17T02:21:48.742Z,14.47
2018-09-17T02:24:16.382Z,14.33
2018-09-17T02:26:43.928Z,14.30
2018-09-17T02:29:11.511Z,13.60
2018-09-17T02:31:39.156Z,13.70
2018-09-17T02:34:06.688Z,12.50
2018-09-17T02:36:34.242Z,13.20
2018-09-17T02:39:01.841Z,13.90
2018-09-17T02:41:29.341Z,10.40
2018-09-17T02:43:56.904Z,10.03
2018-09-17T02:46:24.490Z,9.50
2018-09-17T02:48:52.052Z,10.97
2018-09-17T02:51:19.669Z,9.50
2018-09-17T02:53:47.211Z,9.90
2018-09-17T02:56:14.737Z,10.40
2018-09-17T02:58:42.304Z,10.37
2018-09-17T03:01:09.898Z,10.57
2018-09-17T03:03:37.461Z,10.13
2018-09-17T03:06:05.097Z,10.87
2018-09-17T03:08:32.669Z,11.97
2018-09-17T03:11:00.245Z,11.87
2018-09-17T03:13:27.842Z,13.63
2018-09-17T03:15:55.884Z,15.13
2018-09-17T03:18:37.152Z,16.60
2018-09-17T03:21:05.893Z,15.50
2018-09-17T03:23:35.057Z,14.10
2018-09-17T03:26:02.606Z,13.90
2018-09-17T03:28:30.155Z,13.80
2018-09-17T03:30:57.811Z,13.80
2018-09-17T03:33:25.549Z,13.83
2018-09-17T03:35:53.142Z,12.90
2018-09-17T03:38:31.960Z,13.13
2018-09-17T03:41:00.199Z,13.43
2018-09-17T03:43:27.728Z,11.67
2018-09-17T03:45:55.245Z,11.60
2018-09-17T03:48:22.852Z,9.53
2018-09-17T03:50:50.360Z,12.50
2018-09-17T03:53:17.940Z,10.90
2018-09-17T03:55:45.457Z,10.50
2018-09-17T03:58:13.115Z,9.50
2018-09-17T04:00:40.695Z,9.40
2018-09-17T04:03:08.386Z,10.50
2018-09-17T04:05:35.919Z,10.00
2018-09-17T04:08:03.515Z,9.80
2018-09-17T04:10:31.047Z,10.67
2018-09-17T04:12:58.571Z,10.40
2018-09-17T04:15:26.637Z,11.60
2018-09-17T04:17:54.187Z,12.27
2018-09-17T04:20:21.765Z,12.00
2018-09-17T04:22:49.296Z,14.33
2018-09-17T04:25:16.823Z,16.10
2018-09-17T04:27:44.433Z,14.50
2018-09-17T04:30:11.985Z,15.27
2018-09-17T04:32:39.511Z,15.30
2018-09-17T04:35:07.548Z,15.53
2018-09-17T04:37:36.262Z,15.83
2018-09-17T04:40:03.987Z,14.67
2018-09-17T04:42:31.505Z,15.13
2018-09-17T04:44:59.083Z,15.63
2018-09-17T04:47:26.601Z,15.33
2018-09-17T04:49:54.153Z,14.67
2018-09-17T04:52:21.711Z,15.07
2018-09-17T04:54:49.373Z,13.37
2018-09-17T04:57:17.080Z,15.13
2018-09-17T04:59:44.603Z,14.97
2018-09-17T05:02:12.214Z,14.67
2018-09-17T05:04:39.749Z,13.50
2018-09-17T05:07:07.330Z,15.57
2018-09-17T05:09:34.909Z,14.43
2018-09-17T05:12:02.471Z,14.37
2018-09-17T05:14:30.021Z,14.47
2018-09-17T05:16:57.651Z,15.00
2018-09-17T05:19:25.208Z,15.03
2018-09-17T05:21:52.834Z,14.33
2018-09-17T05:24:20.398Z,15.77
2018-09-17T05:26:48.017Z,15.27
2018-09-17T05:29:15.535Z,16.13
2018-09-17T05:31:43.157Z,16.00
2018-09-17T05:34:10.727Z,18.60
2018-09-17T05:36:38.323Z,16.20
2018-09-17T05:39:08.106Z,18.80
2018-09-17T05:41:36.214Z,17.17
2018-09-17T05:44:03.867Z,16.63
2018-09-17T05:46:31.423Z,18.50
2018-09-17T05:48:58.919Z,17.33
2018-09-17T05:51:26.573Z,15.67
2018-09-17T05:53:55.029Z,15.90
2018-09-17T05:56:22.554Z,18.10
2018-09-17T05:58:50.178Z,17.10
2018-09-17T06:01:17.732Z,17.33
2018-09-17T06:03:45.308Z,17.10
2018-09-17T06:06:12.912Z,15.60
2018-09-17T06:08:40.469Z,16.00
2018-09-17T06:11:08.277Z,15.43
2018-09-17T06:13:35.815Z,16.50
2018-09-17T06:16:03.390Z,16.60
2018-09-17T06:18:30.929Z,16.70
2018-09-17T06:20:58.573Z,16.33
2018-09-17T06:23:26.164Z,18.33
2018-09-17T06:25:53.686Z,18.33
2018-09-17T06:39:55.182Z,19.73
2018-09-17T06:42:22.710Z,19.53
2018-09-17T06:44:50.363Z,18.70
2018-09-17T06:47:17.879Z,19.47
2018-09-17T06:49:45.471Z,19.60
2018-09-17T06:52:13.057Z,18.60
2018-09-17T06:54:40.649Z,20.43
2018-09-17T06:57:08.203Z,20.03
2018-09-17T06:59:35.753Z,20.27
2018-09-17T07:02:03.372Z,21.43
2018-09-17T07:04:31.019Z,21.37
2018-09-17T07:06:58.641Z,23.63
2018-09-17T07:09:26.264Z,21.47
2018-09-17T07:11:53.911Z,20.30
2018-09-17T07:14:21.518Z,22.23
2018-09-17T07:16:49.176Z,21.97
2018-09-17T07:19:16.845Z,22.80
2018-09-17T07:21:44.451Z,21.50
2018-09-17T07:24:12.100Z,22.53
2018-09-17T07:26:39.730Z,22.53
2018-09-17T07:29:07.327Z,23.20
2018-09-17T07:31:35.011Z,25.47
2018-09-17T07:34:02.673Z,23.50
2018-09-17T07:36:30.305Z,31.00
2018-09-17T07:38:57.937Z,31.20
2018-09-17T07:41:25.555Z,33.80
2018-09-17T07:43:53.432Z,41.83
2018-09-17T07:46:21.112Z,42.07
2018-09-17T07:48:48.740Z,42.20
2018-09-17T07:51:16.351Z,35.97
2018-09-17T07:53:44.040Z,29.53
2018-09-17T07:56:11.684Z,28.47
2018-09-17T07:58:39.230Z,27.10
2018-09-17T08:01:06.941Z,27.60
2018-09-17T08:03:34.624Z,28.87
2018-09-17T08:06:02.223Z,29.20
2018-09-17T08:08:29.845Z,26.50
2018-09-17T08:10:57.450Z,28.73
2018-09-17T08:13:25.019Z,29.03
2018-09-17T08:15:52.803Z,28.13
2018-09-17T08:18:20.471Z,29.73
2018-09-17T08:20:48.019Z,32.70
2018-09-17T08:23:15.606Z,29.00
2018-09-17T08:25:43.174Z,31.73
2018-09-17T08:28:10.703Z,31.10
2018-09-17T08:30:38.348Z,31.00
2018-09-17T08:33:06.746Z,34.13
2018-09-17T08:35:34.307Z,43.60
2018-09-17T08:38:01.848Z,45.40
2018-09-17T08:40:30.079Z,37.80
2018-09-17T08:42:57.625Z,38.20
2018-09-17T08:45:25.143Z,37.27
2018-09-17T08:47:52.770Z,40.73
2018-09-17T08:50:20.383Z,34.83
2018-09-17T08:52:48.044Z,36.20
2018-09-17T08:55:21.375Z,31.87
2018-09-17T08:59:58.120Z,27.30
2018-09-17T09:02:31.305Z,27.03
2018-09-17T09:05:04.602Z,24.20
2018-09-17T09:07:36.007Z,24.53
2018-09-17T09:10:10.295Z,24.43
2018-09-17T09:12:39.388Z,22.40
2018-09-17T09:15:12.450Z,20.80
2018-09-17T09:17:40.076Z,21.73
2018-09-17T09:20:07.752Z,21.43
2018-09-17T09:22:35.326Z,19.47
2018-09-17T09:25:03.050Z,20.17
2018-09-17T09:27:30.577Z,20.90
2018-09-17T09:29:58.097Z,19.40
2018-09-17T09:32:25.670Z,20.63
2018-09-17T09:34:53.221Z,19.00
2018-09-17T09:37:20.815Z,19.00
2018-09-17T09:39:48.633Z,18.03
2018-09-17T09:42:16.295Z,20.37
2018-09-17T09:44:43.894Z,19.53
2018-09-17T09:47:11.567Z,19.00
2018-09-17T09:49:39.076Z,18.83
2018-09-17T09:52:06.624Z,26.33
2018-09-17T09:54:34.193Z,17.43
2018-09-17T09:57:01.736Z,14.53
2018-09-17T09:59:29.363Z,14.20
2018-09-17T10:02:02.452Z,12.50
2018-09-17T10:04:30.014Z,13.50
2018-09-17T10:06:57.819Z,15.53
2018-09-17T10:09:30.939Z,10.60
2018-09-17T10:12:04.131Z,7.83
2018-09-17T10:14:37.352Z,8.80
2018-09-17T10:17:10.567Z,6.90
2018-09-17T10:19:43.758Z,6.00
2018-09-17T10:22:11.325Z,7.10
2018-09-17T10:24:38.909Z,5.33
2018-09-17T10:27:06.484Z,6.20
2018-09-17T10:29:34.039Z,5.00
2018-09-17T10:32:01.610Z,5.47
2018-09-17T10:34:29.222Z,5.30
2018-09-17T10:36:56.793Z,6.53
2018-09-17T10:39:24.318Z,5.60
2018-09-17T10:41:51.952Z,5.30
2018-09-17T10:44:19.516Z,4.90
2018-09-17T10:46:47.076Z,5.03
2018-09-17T10:49:14.665Z,5.03
2018-09-17T10:51:42.192Z,5.40
2018-09-17T10:54:09.755Z,5.10
2018-09-17T10:56:37.317Z,4.60
2018-09-17T10:59:04.925Z,4.20
2018-09-17T11:01:33.318Z,4.57
2018-09-17T11:04:00.911Z,3.80
2018-09-17T11:06:28.462Z,4.10
2018-09-17T11:08:56.060Z,4.20
2018-09-17T11:11:23.759Z,3.97
2018-09-17T11:13:51.304Z,3.43
2018-09-17T11:16:18.849Z,3.60
2018-09-17T11:18:46.644Z,3.90
2018-09-17T11:21:14.254Z,3.70
2018-09-17T11:23:41.804Z,3.77
2018-09-17T11:26:09.366Z,4.17
2018-09-17T11:28:36.949Z,3.83
2018-09-17T11:31:04.553Z,3.77
2018-09-17T11:33:32.181Z,4.00
2018-09-17T11:35:59.724Z,3.70
2018-09-17T11:38:27.320Z,3.40
2018-09-17T11:40:54.884Z,3.10
2018-09-17T11:43:22.492Z,3.27
2018-09-17T11:45:50.115Z,3.13
2018-09-17T11:48:17.676Z,3.30
2018-09-17T11:50:45.197Z,3.37
2018-09-17T11:53:12.723Z,3.43
2018-09-17T11:55:40.443Z,3.23
2018-09-17T11:58:08.033Z,3.10
2018-09-17T12:00:42.874Z,3.20
2018-09-17T12:03:16.079Z,3.40
2018-09-17T12:05:49.418Z,3.20
2018-09-17T12:08:18.017Z,3.23
2018-09-17T12:10:45.592Z,2.77
2018-09-17T12:13:13.171Z,3.07
2018-09-17T12:15:41.839Z,3.13
2018-09-17T12:18:10.416Z,3.13
2018-09-17T12:20:38.326Z,3.40
2018-09-17T12:23:06.539Z,3.33
2018-09-17T12:25:34.451Z,3.07
2018-09-17T12:28:02.012Z,3.57
2018-09-17T12:30:29.660Z,3.93
2018-09-17T12:32:57.259Z,2.70
2018-09-17T12:35:25.010Z,2.80
2018-09-17T12:37:52.555Z,2.87
2018-09-17T12:40:20.125Z,2.90
2018-09-17T12:42:47.687Z,2.50
2018-09-17T12:45:15.267Z,2.43
2018-09-17T12:47:42.850Z,2.73
2018-09-17T12:50:10.470Z,2.77
2018-09-17T12:52:38.025Z,2.60
2018-09-17T12:55:05.593Z,2.80
2018-09-17T12:57:33.199Z,2.90
2018-09-17T13:00:00.827Z,2.60
2018-09-17T13:02:28.451Z,3.40
2018-09-17T13:04:56.020Z,3.30
2018-09-17T13:07:23.693Z,3.40
2018-09-17T13:09:51.255Z,3.70
2018-09-17T13:12:18.813Z,2.97
2018-09-17T13:14:46.419Z,3.00
2018-09-17T13:17:14.098Z,2.50
2018-09-17T13:19:41.662Z,2.90
2018-09-17T13:22:09.205Z,3.10
2018-09-17T13:24:36.798Z,2.60
2018-09-17T13:27:04.385Z,3.10
2018-09-17T13:29:32.053Z,3.47
2018-09-17T13:31:59.653Z,2.40
2018-09-17T13:34:27.190Z,3.50
2018-09-17T13:36:54.884Z,3.20
2018-09-17T13:39:22.449Z,3.10
2018-09-17T13:41:50.051Z,3.47
2018-09-17T13:44:18.688Z,3.30
2018-09-17T13:46:46.222Z,3.30
2018-09-17T13:49:13.815Z,3.07
2018-09-17T13:51:41.368Z,3.03
2018-09-17T13:54:08.945Z,3.20
2018-09-17T13:56:36.647Z,3.00
2018-09-17T13:59:04.302Z,3.57
2018-09-17T14:01:31.859Z,3.50
2018-09-17T14:03:59.445Z,2.83
2018-09-17T14:06:27.024Z,3.20
2018-09-17T14:08:54.584Z,3.63
2018-09-17T14:11:22.393Z,5.47
2018-09-17T14:13:49.973Z,3.30
2018-09-17T14:16:23.289Z,3.23
2018-09-17T14:18:50.899Z,4.90
2018-09-17T14:21:18.586Z,2.97
2018-09-17T14:23:46.193Z,4.90
2018-09-17T14:26:13.841Z,3.30
2018-09-17T14:28:41.512Z,4.50
2018-09-17T14:31:09.305Z,6.67
2018-09-17T14:33:38.238Z,3.40
2018-09-17T14:36:05.864Z,3.13
2018-09-17T14:38:33.580Z,3.43
2018-09-17T14:41:01.300Z,3.40
2018-09-17T14:43:28.824Z,3.97
2018-09-17T14:45:56.593Z,3.43
2018-09-17T14:48:25.314Z,3.80
2018-09-17T14:50:53.285Z,3.57
2018-09-17T14:53:21.015Z,3.60
2018-09-17T14:55:48.615Z,3.27
2018-09-17T14:58:16.233Z,3.57
2018-09-17T15:00:44.649Z,3.67
2018-09-17T15:03:12.165Z,3.57
2018-09-17T15:05:39.743Z,3.17
2018-09-17T15:08:07.791Z,3.07
2018-09-17T15:10:35.328Z,3.40
2018-09-17T15:13:02.870Z,3.60
2018-09-17T15:15:30.646Z,4.27
2018-09-17T15:17:58.156Z,2.70
2018-09-17T15:20:25.793Z,3.27
2018-09-17T15:22:53.366Z,3.40
2018-09-17T15:25:20.963Z,3.37
2018-09-17T15:27:48.600Z,3.23
2018-09-17T15:30:16.174Z,3.23
2018-09-17T15:32:43.799Z,3.80
2018-09-17T15:35:11.389Z,4.20
2018-09-17T15:37:38.964Z,3.40
2018-09-17T15:40:06.633Z,2.90
2018-09-17T15:42:34.222Z,4.80
2018-09-17T15:45:02.339Z,2.73
2018-09-17T15:47:30.006Z,3.77
2018-09-17T15:49:57.985Z,2.63
2018-09-17T15:52:25.652Z,3.43
2018-09-17T15:54:53.237Z,6.87
2018-09-17T15:57:20.870Z,5.23
2018-09-17T15:59:48.454Z,2.90
2018-09-17T16:02:16.117Z,3.93
2018-09-17T16:04:43.655Z,3.50
2018-09-17T16:07:11.248Z,3.90
2018-09-17T16:09:38.795Z,2.70
2018-09-17T16:12:06.418Z,2.70
2018-09-17T16:14:34.045Z,3.90
2018-09-17T16:17:01.664Z,2.97
2018-09-17T16:19:29.260Z,2.83
2018-09-17T16:21:56.816Z,3.33
2018-09-17T16:24:24.416Z,2.70
2018-09-17T16:26:52.069Z,3.10
2018-09-17T16:29:19.630Z,3.47
2018-09-17T16:31:47.180Z,4.07
2018-09-17T16:34:17.615Z,3.00
2018-09-17T16:36:45.188Z,2.63
2018-09-17T16:39:12.852Z,2.70
2018-09-17T16:41:40.590Z,2.90
2018-09-17T16:44:08.176Z,2.50
2018-09-17T16:46:35.866Z,2.60
2018-09-17T16:49:03.535Z,3.17
2018-09-17T16:51:31.512Z,3.10
2018-09-17T16:53:59.798Z,3.13
2018-09-17T16:56:27.743Z,2.90
2018-09-17T16:58:55.989Z,2.70
2018-09-17T17:01:23.576Z,3.00
2018-09-17T17:03:51.161Z,3.00
2018-09-17T17:06:18.724Z,2.53
2018-09-17T17:08:46.307Z,2.77
2018-09-17T17:11:13.906Z,3.13
2018-09-17T17:13:41.507Z,2.90
2018-09-17T17:16:09.131Z,3.20
2018-09-17T17:18:36.783Z,3.30
2018-09-17T17:21:05.098Z,2.83
2018-09-17T17:23:32.791Z,2.70
2018-09-17T17:26:00.410Z,2.83
2018-09-17T17:28:28.194Z,2.93
2018-09-17T17:30:55.893Z,2.97
2018-09-17T17:33:23.503Z,3.07
2018-09-17T17:35:51.157Z,2.53
2018-09-17T17:38:18.742Z,2.83
2018-09-17T17:40:46.392Z,2.80
2018-09-17T17:43:14.032Z,3.00
2018-09-17T17:45:41.991Z,2.80
2018-09-17T17:48:09.588Z,3.47
2018-09-17T17:50:37.217Z,2.80
2018-09-17T17:53:04.862Z,3.30
2018-09-17T17:55:32.490Z,3.60
2018-09-17T17:58:00.248Z,3.27
2018-09-17T18:00:27.805Z,2.77
2018-09-17T18:02:55.388Z,3.17
2018-09-17T18:05:23.127Z,2.87
2018-09-17T18:07:50.685Z,3.40
2018-09-17T18:10:18.287Z,3.27
2018-09-17T18:12:45.939Z,2.87
2018-09-17T18:15:13.614Z,3.20
2018-09-17T18:17:41.213Z,3.20
2018-09-17T18:20:08.808Z,3.70
2018-09-17T18:22:36.377Z,3.17
2018-09-17T18:25:04.058Z,2.70
2018-09-17T18:27:31.753Z,3.30
2018-09-17T18:29:59.373Z,4.10
2018-09-17T18:32:27.180Z,3.77
2018-09-17T18:34:54.762Z,3.47
2018-09-17T18:37:22.353Z,3.53
2018-09-17T18:39:50.239Z,3.60
2018-09-17T18:42:18.031Z,3.00
2018-09-17T18:44:45.803Z,3.67
2018-09-17T18:47:13.604Z,3.80
2018-09-17T18:49:41.342Z,3.53
2018-09-17T18:52:09.101Z,3.47
2018-09-17T18:54:36.886Z,2.77
2018-09-17T18:57:04.891Z,3.50
2018-09-17T18:59:32.823Z,3.30
2018-09-17T19:02:00.864Z,3.83
2018-09-17T19:04:28.630Z,4.30
2018-09-17T19:06:56.889Z,3.87
2018-09-17T19:09:30.641Z,3.77
2018-09-17T19:11:58.899Z,3.60
2018-09-17T19:14:32.281Z,3.80
2018-09-17T19:17:04.551Z,4.27
2018-09-17T19:19:32.248Z,3.40
2018-09-17T19:22:05.773Z,3.40
2018-09-17T19:24:33.964Z,3.70
2018-09-17T19:27:01.959Z,3.80
2018-09-17T19:29:29.665Z,3.83
2018-09-17T19:31:57.532Z,3.60
2018-09-17T19:34:25.205Z,3.80
2018-09-17T19:36:52.960Z,4.13
2018-09-17T19:39:26.237Z,3.87
2018-09-17T19:41:53.984Z,3.80
2018-09-17T19:44:21.773Z,3.40
2018-09-17T19:46:49.668Z,3.97
2018-09-17T19:49:17.344Z,4.10
2018-09-17T19:51:50.706Z,3.80
2018-09-17T19:54:18.460Z,3.50
2018-09-17T19:56:46.136Z,4.73
2018-09-17T19:59:19.392Z,3.73
2018-09-17T20:01:47.192Z,4.13
2018-09-17T20:04:20.668Z,4.70
2018-09-17T20:06:48.332Z,4.67
2018-09-17T20:09:15.986Z,4.33
2018-09-17T20:11:43.655Z,3.70
2018-09-17T20:14:11.412Z,4.10
2018-09-17T20:16:39.103Z,3.97
2018-09-17T20:19:06.701Z,4.30
2018-09-17T20:21:34.377Z,3.70
2018-09-17T20:24:02.055Z,4.13
2018-09-17T20:26:29.790Z,3.50
2018-09-17T20:28:57.623Z,4.07
2018-09-17T20:31:25.244Z,4.70
2018-09-17T20:33:52.861Z,3.93
2018-09-17T20:36:20.555Z,4.30
2018-09-17T20:38:48.613Z,4.00
2018-09-17T20:41:16.138Z,3.77
2018-09-17T20:43:43.702Z,3.90
2018-09-17T20:46:11.517Z,3.63
2018-09-17T20:48:39.218Z,4.13
2018-09-17T20:51:06.838Z,4.00
2018-09-17T20:53:34.420Z,4.57
2018-09-17T20:56:02.129Z,3.97
2018-09-17T20:58:29.662Z,4.20
2018-09-17T21:00:57.332Z,4.10
2018-09-17T21:03:24.926Z,3.80
2018-09-17T21:05:52.513Z,4.30
2018-09-17T21:08:20.115Z,4.70
2018-09-17T21:10:47.764Z,5.00
2018-09-17T21:13:15.494Z,4.20
2018-09-17T21:15:43.379Z,4.67
2018-09-17T21:18:11.078Z,4.50
2018-09-17T21:20:38.770Z,4.23
2018-09-17T21:23:06.482Z,4.43
2018-09-17T21:25:34.108Z,4.70
2018-09-17T21:28:01.796Z,4.30
2018-09-17T21:30:29.453Z,4.43
2018-09-17T21:32:57.057Z,4.63
2018-09-17T21:35:24.758Z,4.30
2018-09-17T21:37:52.447Z,4.57
2018-09-17T21:40:20.061Z,4.30
2018-09-17T21:42:47.726Z,4.30
2018-09-17T21:45:15.265Z,4.90
2018-09-17T21:47:42.907Z,4.63
2018-09-17T21:50:10.513Z,4.83
2018-09-17T21:52:38.111Z,4.07
2018-09-17T21:55:05.751Z,4.17
2018-09-17T21:57:33.436Z,3.77
2018-09-17T22:00:01.063Z,4.60
2018-09-17T22:02:28.719Z,4.80
2018-09-17T22:04:56.345Z,4.80
2018-09-17T22:07:24.685Z,4.40
2018-09-17T22:09:52.372Z,4.23
2018-09-17T22:12:20.016Z,4.27
2018-09-17T22:14:47.577Z,4.37
2018-09-17T22:17:15.189Z,4.60
2018-09-17T22:19:42.740Z,4.17
2018-09-17T22:22:10.296Z,4.40
2018-09-17T22:24:37.874Z,4.33
2018-09-17T22:27:05.409Z,3.93
2018-09-17T22:29:32.940Z,5.33
2018-09-17T22:32:00.469Z,4.53
2018-09-17T22:34:28.050Z,4.73
2018-09-17T22:36:55.623Z,5.10
2018-09-17T22:39:23.215Z,4.70
2018-09-17T22:41:50.795Z,4.90
2018-09-17T22:44:18.380Z,4.83
2018-09-17T22:46:45.940Z,5.30
2018-09-17T22:49:13.536Z,5.03
2018-09-17T22:51:41.083Z,4.60
2018-09-17T22:54:08.685Z,5.73
2018-09-17T22:56:36.241Z,4.97
2018-09-17T22:59:03.839Z,5.70
2018-09-17T23:01:31.435Z,5.97
2018-09-17T23:03:58.997Z,4.97
2018-09-17T23:06:26.661Z,5.10
2018-09-17T23:08:54.248Z,5.03
2018-09-17T23:11:21.833Z,4.10
2018-09-17T23:13:49.365Z,5.20
2018-09-17T23:16:16.964Z,4.17
2018-09-17T23:18:44.517Z,5.30
2018-09-17T23:21:12.075Z,5.30
2018-09-17T23:23:39.656Z,5.70
2018-09-17T23:26:07.244Z,5.17
2018-09-17T23:28:34.848Z,4.60
2018-09-17T23:31:02.411Z,4.87
2018-09-17T23:33:29.990Z,4.97
2018-09-17T23:35:57.531Z,5.07
2018-09-17T23:38:25.089Z,5.60
2018-09-17T23:40:52.723Z,5.33
2018-09-17T23:43:20.300Z,4.50
2018-09-17T23:45:47.820Z,4.60
2018-09-17T23:48:15.413Z,4.77
2018-09-17T23:50:42.993Z,5.70
2018-09-17T23:53:10.715Z,5.40
2018-09-17T23:55:38.264Z,4.87
2018-09-17T23:58:05.808Z,5.20
